sensor_id;sensor_type;location;lat;lon;timestamp;pressure;altitude;pressure_sealevel;temperature;humidity
69855;BME280;57146;48.140;16.304;2023-02-15T00:01:07;101088.53;;;2.36;79.09
69855;BME280;57146;48.140;16.304;2023-02-15T00:03:35;101089.34;;;2.43;77.99
69855;BME280;57146;48.140;16.304;2023-02-15T00:06:03;101083.94;;;2.38;78.74
69855;BME280;57146;48.140;16.304;2023-02-15T00:08:31;101084.31;;;2.42;79.63
69855;BME280;57146;48.140;16.304;2023-02-15T00:11:09;101089.75;;;2.53;78.28
69855;BME280;57146;48.140;16.304;2023-02-15T00:13:37;101085.31;;;2.60;77.67
69855;BME280;57146;48.140;16.304;2023-02-15T00:16:09;101079.91;;;2.62;77.13
69855;BME280;57146;48.140;16.304;2023-02-15T00:18:38;101082.91;;;2.59;76.98
69855;BME280;57146;48.140;16.304;2023-02-15T00:21:08;101079.34;;;2.53;77.90
69855;BME280;57146;48.140;16.304;2023-02-15T00:23:36;101080.75;;;2.49;78.09
69855;BME280;57146;48.140;16.304;2023-02-15T00:26:09;101090.53;;;2.54;77.54
69855;BME280;57146;48.140;16.304;2023-02-15T00:28:37;101091.94;;;2.50;78.34
69855;BME280;57146;48.140;16.304;2023-02-15T00:31:09;101091.94;;;2.56;77.23
69855;BME280;57146;48.140;16.304;2023-02-15T00:33:38;101085.50;;;2.59;77.25
69855;BME280;57146;48.140;16.304;2023-02-15T00:36:08;101084.94;;;2.50;77.98
69855;BME280;57146;48.140;16.304;2023-02-15T00:38:36;101080.53;;;2.57;77.06
69855;BME280;57146;48.140;16.304;2023-02-15T00:41:05;101079.50;;;2.65;76.62
69855;BME280;57146;48.140;16.304;2023-02-15T00:43:34;101078.09;;;2.69;76.96
69855;BME280;57146;48.140;16.304;2023-02-15T00:46:02;101080.31;;;2.59;76.76
69855;BME280;57146;48.140;16.304;2023-02-15T00:48:31;101086.13;;;2.54;77.19
69855;BME280;57146;48.140;16.304;2023-02-15T00:50:59;101084.72;;;2.52;77.76
69855;BME280;57146;48.140;16.304;2023-02-15T00:53:27;101079.53;;;2.58;77.27
69855;BME280;57146;48.140;16.304;2023-02-15T00:55:54;101071.72;;;2.58;76.52
69855;BME280;57146;48.140;16.304;2023-02-15T00:58:21;101073.53;;;2.58;77.19
69855;BME280;57146;48.140;16.304;2023-02-15T01:00:48;101072.34;;;2.47;78.21
69855;BME280;57146;48.140;16.304;2023-02-15T01:03:17;101069.75;;;2.47;77.99
69855;BME280;57146;48.140;16.304;2023-02-15T01:05:44;101068.72;;;2.42;78.65
69855;BME280;57146;48.140;16.304;2023-02-15T01:08:11;101060.34;;;2.46;77.92
69855;BME280;57146;48.140;16.304;2023-02-15T01:10:38;101061.53;;;2.50;77.40
69855;BME280;57146;48.140;16.304;2023-02-15T01:13:05;101050.34;;;2.50;77.58
69855;BME280;57146;48.140;16.304;2023-02-15T01:15:35;101040.13;;;2.48;77.23
69855;BME280;57146;48.140;16.304;2023-02-15T01:18:03;101040.34;;;2.47;76.79
69855;BME280;57146;48.140;16.304;2023-02-15T01:20:35;101042.34;;;2.38;77.22
69855;BME280;57146;48.140;16.304;2023-02-15T01:23:02;101035.78;;;2.42;77.60
69855;BME280;57146;48.140;16.304;2023-02-15T01:25:29;101039.75;;;2.38;76.75
69855;BME280;57146;48.140;16.304;2023-02-15T01:27:56;101033.75;;;2.44;76.56
69855;BME280;57146;48.140;16.304;2023-02-15T01:30:23;101030.19;;;2.38;77.44
69855;BME280;57146;48.140;16.304;2023-02-15T01:32:50;101037.56;;;2.22;78.33
69855;BME280;57146;48.140;16.304;2023-02-15T01:35:17;101028.59;;;2.18;78.84
69855;BME280;57146;48.140;16.304;2023-02-15T01:37:44;101031.78;;;2.13;79.52
69855;BME280;57146;48.140;16.304;2023-02-15T01:40:16;101027.59;;;2.19;78.73
69855;BME280;57146;48.140;16.304;2023-02-15T01:42:44;101028.38;;;2.19;78.93
69855;BME280;57146;48.140;16.304;2023-02-15T01:45:27;101028.38;;;2.12;78.45
69855;BME280;57146;48.140;16.304;2023-02-15T01:50:34;101026.78;;;2.11;79.18
69855;BME280;57146;48.140;16.304;2023-02-15T01:55:40;101020.78;;;2.04;79.24
69855;BME280;57146;48.140;16.304;2023-02-15T01:58:09;101021.97;;;1.95;80.00
69855;BME280;57146;48.140;16.304;2023-02-15T02:00:36;101012.78;;;1.99;79.37
69855;BME280;57146;48.140;16.304;2023-02-15T02:03:03;101016.19;;;2.13;78.68
69855;BME280;57146;48.140;16.304;2023-02-15T02:05:32;101004.19;;;2.25;78.16
69855;BME280;57146;48.140;16.304;2023-02-15T02:08:01;101000.00;;;2.18;78.37
69855;BME280;57146;48.140;16.304;2023-02-15T02:10:30;101016.59;;;2.03;78.84
69855;BME280;57146;48.140;16.304;2023-02-15T02:13:03;101012.19;;;1.84;79.53
69855;BME280;57146;48.140;16.304;2023-02-15T02:15:55;101008.22;;;1.75;80.16
69855;BME280;57146;48.140;16.304;2023-02-15T02:18:48;101006.00;;;1.72;80.42
69855;BME280;57146;48.140;16.304;2023-02-15T02:41:50;100985.44;;;1.83;79.46
69855;BME280;57146;48.140;16.304;2023-02-15T02:44:27;100987.41;;;1.81;80.25
69855;BME280;57146;48.140;16.304;2023-02-15T02:49:44;100975.84;;;1.84;79.67
69855;BME280;57146;48.140;16.304;2023-02-15T02:52:35;100974.66;;;1.80;79.31
69855;BME280;57146;48.140;16.304;2023-02-15T02:55:12;100974.44;;;1.81;80.80
69855;BME280;57146;48.140;16.304;2023-02-15T03:00:22;100977.03;;;1.88;79.50
69855;BME280;57146;48.140;16.304;2023-02-15T03:02:56;100975.66;;;1.85;80.49
69855;BME280;57146;48.140;16.304;2023-02-15T03:05:27;100966.47;;;1.83;80.13
69855;BME280;57146;48.140;16.304;2023-02-15T03:07:58;100965.28;;;1.85;80.67
69855;BME280;57146;48.140;16.304;2023-02-15T03:10:28;100966.84;;;1.93;79.86
69855;BME280;57146;48.140;16.304;2023-02-15T03:12:55;100972.63;;;1.88;79.97
69855;BME280;57146;48.140;16.304;2023-02-15T03:15:28;100960.44;;;1.96;79.18
69855;BME280;57146;48.140;16.304;2023-02-15T03:17:58;100960.66;;;1.87;80.05
69855;BME280;57146;48.140;16.304;2023-02-15T03:20:31;100966.63;;;1.81;80.29
69855;BME280;57146;48.140;16.304;2023-02-15T03:23:13;100963.25;;;1.81;80.16
69855;BME280;57146;48.140;16.304;2023-02-15T03:25:43;100959.47;;;1.83;79.30
69855;BME280;57146;48.140;16.304;2023-02-15T03:28:25;100957.47;;;1.79;79.91
69855;BME280;57146;48.140;16.304;2023-02-15T03:31:00;100967.84;;;1.72;81.01
69855;BME280;57146;48.140;16.304;2023-02-15T03:33:28;100965.44;;;1.77;80.27
69855;BME280;57146;48.140;16.304;2023-02-15T03:36:02;100964.03;;;1.81;80.50
69855;BME280;57146;48.140;16.304;2023-02-15T03:41:40;100969.84;;;1.83;80.37
69855;BME280;57146;48.140;16.304;2023-02-15T03:44:16;100968.25;;;1.76;80.87
69855;BME280;57146;48.140;16.304;2023-02-15T03:46:54;100966.06;;;1.73;80.62
69855;BME280;57146;48.140;16.304;2023-02-15T03:49:32;100967.06;;;1.78;80.55
69855;BME280;57146;48.140;16.304;2023-02-15T03:52:02;100975.66;;;1.85;80.10
69855;BME280;57146;48.140;16.304;2023-02-15T03:54:33;100966.25;;;1.84;80.93
69855;BME280;57146;48.140;16.304;2023-02-15T03:57:02;100965.44;;;1.77;81.18
69855;BME280;57146;48.140;16.304;2023-02-15T03:59:29;100967.66;;;1.74;81.22
69855;BME280;57146;48.140;16.304;2023-02-15T04:04:37;100964.47;;;1.78;80.94
69855;BME280;57146;48.140;16.304;2023-02-15T04:07:07;100964.88;;;1.75;81.00
69855;BME280;57146;48.140;16.304;2023-02-15T04:09:35;100964.25;;;1.80;81.10
69855;BME280;57146;48.140;16.304;2023-02-15T04:12:02;100968.25;;;1.82;80.78
69855;BME280;57146;48.140;16.304;2023-02-15T04:14:29;100976.22;;;1.81;81.58
69855;BME280;57146;48.140;16.304;2023-02-15T04:16:56;100969.84;;;1.77;80.68
69855;BME280;57146;48.140;16.304;2023-02-15T04:19:23;100969.44;;;1.73;80.05
69855;BME280;57146;48.140;16.304;2023-02-15T04:21:50;100972.03;;;1.66;80.76
69855;BME280;57146;48.140;16.304;2023-02-15T04:24:17;100962.66;;;1.65;80.71
69855;BME280;57146;48.140;16.304;2023-02-15T04:26:44;100961.84;;;1.58;80.85
69855;BME280;57146;48.140;16.304;2023-02-15T04:29:11;100969.44;;;1.60;82.11
69855;BME280;57146;48.140;16.304;2023-02-15T04:31:38;100961.66;;;1.60;81.82
69855;BME280;57146;48.140;16.304;2023-02-15T04:34:05;100965.06;;;1.60;81.49
69855;BME280;57146;48.140;16.304;2023-02-15T04:36:32;100953.47;;;1.56;81.93
69855;BME280;57146;48.140;16.304;2023-02-15T04:38:59;100956.66;;;1.65;81.33
69855;BME280;57146;48.140;16.304;2023-02-15T04:41:26;100961.47;;;1.61;81.63
69855;BME280;57146;48.140;16.304;2023-02-15T04:43:52;100954.06;;;1.58;81.50
69855;BME280;57146;48.140;16.304;2023-02-15T04:46:19;100959.06;;;1.60;81.32
69855;BME280;57146;48.140;16.304;2023-02-15T04:48:46;100959.06;;;1.60;81.31
69855;BME280;57146;48.140;16.304;2023-02-15T04:51:13;100964.63;;;1.63;80.86
69855;BME280;57146;48.140;16.304;2023-02-15T04:53:40;100960.84;;;1.59;81.22
69855;BME280;57146;48.140;16.304;2023-02-15T04:56:07;100961.66;;;1.53;81.05
69855;BME280;57146;48.140;16.304;2023-02-15T04:58:34;100955.47;;;1.48;81.71
69855;BME280;57146;48.140;16.304;2023-02-15T05:01:01;100961.44;;;1.48;81.84
69855;BME280;57146;48.140;16.304;2023-02-15T05:03:28;100961.66;;;1.47;81.34
69855;BME280;57146;48.140;16.304;2023-02-15T05:05:55;100958.84;;;1.48;81.43
69855;BME280;57146;48.140;16.304;2023-02-15T05:08:22;100963.25;;;1.48;81.80
69855;BME280;57146;48.140;16.304;2023-02-15T05:10:49;100959.06;;;1.47;81.53
69855;BME280;57146;48.140;16.304;2023-02-15T05:13:16;100956.66;;;1.45;81.76
69855;BME280;57146;48.140;16.304;2023-02-15T05:15:51;100956.47;;;1.47;81.45
69855;BME280;57146;48.140;16.304;2023-02-15T05:18:20;100955.47;;;1.48;81.79
69855;BME280;57146;48.140;16.304;2023-02-15T05:20:48;100957.25;;;1.47;81.73
69855;BME280;57146;48.140;16.304;2023-02-15T05:23:15;100958.66;;;1.50;81.60
69855;BME280;57146;48.140;16.304;2023-02-15T05:25:47;100951.69;;;1.50;81.64
69855;BME280;57146;48.140;16.304;2023-02-15T05:28:14;100957.66;;;1.51;81.97
69855;BME280;57146;48.140;16.304;2023-02-15T05:30:41;100961.06;;;1.51;81.92
69855;BME280;57146;48.140;16.304;2023-02-15T05:33:08;100958.06;;;1.48;82.32
69855;BME280;57146;48.140;16.304;2023-02-15T05:35:35;100959.84;;;1.47;82.30
69855;BME280;57146;48.140;16.304;2023-02-15T05:38:02;100962.63;;;1.46;82.00
69855;BME280;57146;48.140;16.304;2023-02-15T05:40:29;100961.66;;;1.47;82.44
69855;BME280;57146;48.140;16.304;2023-02-15T05:42:56;100965.25;;;1.52;82.04
69855;BME280;57146;48.140;16.304;2023-02-15T05:45:23;100959.25;;;1.52;82.30
69855;BME280;57146;48.140;16.304;2023-02-15T05:47:50;100964.84;;;1.49;82.66
69855;BME280;57146;48.140;16.304;2023-02-15T05:50:17;100959.25;;;1.52;82.24
69855;BME280;57146;48.140;16.304;2023-02-15T05:52:45;100964.66;;;1.50;82.54
69855;BME280;57146;48.140;16.304;2023-02-15T05:55:12;100967.84;;;1.52;82.70
69855;BME280;57146;48.140;16.304;2023-02-15T05:57:39;100958.25;;;1.53;82.53
69855;BME280;57146;48.140;16.304;2023-02-15T06:00:07;100963.66;;;1.51;82.07
69855;BME280;57146;48.140;16.304;2023-02-15T06:02:39;100961.84;;;1.52;82.58
69855;BME280;57146;48.140;16.304;2023-02-15T06:05:07;100967.25;;;1.50;82.17
69855;BME280;57146;48.140;16.304;2023-02-15T06:07:34;100968.03;;;1.51;82.08
69855;BME280;57146;48.140;16.304;2023-02-15T06:10:00;100967.25;;;1.50;82.93
69855;BME280;57146;48.140;16.304;2023-02-15T06:12:28;100970.63;;;1.51;82.76
69855;BME280;57146;48.140;16.304;2023-02-15T06:14:55;100984.19;;;1.53;82.76
69855;BME280;57146;48.140;16.304;2023-02-15T06:17:22;100977.25;;;1.53;83.35
69855;BME280;57146;48.140;16.304;2023-02-15T06:19:49;100977.25;;;1.53;83.04
69855;BME280;57146;48.140;16.304;2023-02-15T06:22:16;100979.00;;;1.53;83.14
69855;BME280;57146;48.140;16.304;2023-02-15T06:24:43;100982.22;;;1.55;83.13
69855;BME280;57146;48.140;16.304;2023-02-15T06:27:10;100982.22;;;1.55;82.62
69855;BME280;57146;48.140;16.304;2023-02-15T06:29:37;100978.63;;;1.56;83.11
69855;BME280;57146;48.140;16.304;2023-02-15T06:32:04;100986.22;;;1.57;83.40
69855;BME280;57146;48.140;16.304;2023-02-15T06:34:31;100986.63;;;1.54;83.64
69855;BME280;57146;48.140;16.304;2023-02-15T06:36:59;100982.22;;;1.55;83.34
69855;BME280;57146;48.140;16.304;2023-02-15T06:39:25;100986.00;;;1.52;83.42
69855;BME280;57146;48.140;16.304;2023-02-15T06:41:52;100980.41;;;1.55;83.60
69855;BME280;57146;48.140;16.304;2023-02-15T06:44:19;100982.22;;;1.55;83.43
69855;BME280;57146;48.140;16.304;2023-02-15T06:46:46;100977.81;;;1.55;83.75
69855;BME280;57146;48.140;16.304;2023-02-15T06:49:13;100980.63;;;1.60;82.93
69855;BME280;57146;48.140;16.304;2023-02-15T06:51:40;100981.63;;;1.59;83.51
69855;BME280;57146;48.140;16.304;2023-02-15T06:54:07;100976.25;;;1.61;83.41
69855;BME280;57146;48.140;16.304;2023-02-15T06:56:34;100975.44;;;1.60;83.32
69855;BME280;57146;48.140;16.304;2023-02-15T06:59:01;100979.03;;;1.66;82.93
69855;BME280;57146;48.140;16.304;2023-02-15T07:01:28;100975.63;;;1.65;83.54
69855;BME280;57146;48.140;16.304;2023-02-15T07:03:55;100977.03;;;1.68;83.20
69855;BME280;57146;48.140;16.304;2023-02-15T07:06:21;100970.63;;;1.71;82.86
69855;BME280;57146;48.140;16.304;2023-02-15T07:08:48;100971.66;;;1.70;82.76
69855;BME280;57146;48.140;16.304;2023-02-15T07:11:15;100969.03;;;1.70;82.92
69855;BME280;57146;48.140;16.304;2023-02-15T07:13:42;100964.88;;;1.68;82.14
69855;BME280;57146;48.140;16.304;2023-02-15T07:16:09;100966.44;;;1.70;82.80
69855;BME280;57146;48.140;16.304;2023-02-15T07:18:36;100962.84;;;1.71;82.40
69855;BME280;57146;48.140;16.304;2023-02-15T07:21:04;100963.84;;;1.70;82.72
69855;BME280;57146;48.140;16.304;2023-02-15T07:23:31;100962.25;;;1.68;82.50
69855;BME280;57146;48.140;16.304;2023-02-15T07:25:59;100964.88;;;1.68;82.16
69855;BME280;57146;48.140;16.304;2023-02-15T07:28:27;100957.88;;;1.69;82.15
69855;BME280;57146;48.140;16.304;2023-02-15T07:30:54;100960.06;;;1.65;82.94
69855;BME280;57146;48.140;16.304;2023-02-15T07:33:21;100964.47;;;1.65;82.96
69855;BME280;57146;48.140;16.304;2023-02-15T07:35:55;100965.25;;;1.65;82.56
69855;BME280;57146;48.140;16.304;2023-02-15T07:38:24;100973.03;;;1.65;82.82
69855;BME280;57146;48.140;16.304;2023-02-15T07:40:58;100960.84;;;1.66;83.06
69855;BME280;57146;48.140;16.304;2023-02-15T07:43:25;100963.28;;;1.67;82.80
69855;BME280;57146;48.140;16.304;2023-02-15T07:45:51;100964.88;;;1.68;82.74
69855;BME280;57146;48.140;16.304;2023-02-15T07:48:18;100965.44;;;1.71;82.90
69855;BME280;57146;48.140;16.304;2023-02-15T07:50:45;100967.06;;;1.72;82.95
69855;BME280;57146;48.140;16.304;2023-02-15T07:53:12;100962.06;;;1.70;82.92
69855;BME280;57146;48.140;16.304;2023-02-15T07:55:39;100965.25;;;1.72;83.02
69855;BME280;57146;48.140;16.304;2023-02-15T07:58:06;100965.44;;;1.71;82.64
69855;BME280;57146;48.140;16.304;2023-02-15T08:00:33;100970.25;;;1.74;82.81
69855;BME280;57146;48.140;16.304;2023-02-15T08:03:00;100975.25;;;1.75;82.82
69855;BME280;57146;48.140;16.304;2023-02-15T08:05:28;100971.88;;;1.75;82.88
69855;BME280;57146;48.140;16.304;2023-02-15T08:07:55;100972.84;;;1.74;82.91
69855;BME280;57146;48.140;16.304;2023-02-15T08:10:22;100971.88;;;1.75;83.01
69855;BME280;57146;48.140;16.304;2023-02-15T08:12:49;100962.28;;;1.75;82.54
69855;BME280;57146;48.140;16.304;2023-02-15T08:15:16;100965.25;;;1.79;82.81
69855;BME280;57146;48.140;16.304;2023-02-15T08:17:43;100964.66;;;1.83;83.35
69855;BME280;57146;48.140;16.304;2023-02-15T08:20:10;100968.25;;;1.82;83.05
69855;BME280;57146;48.140;16.304;2023-02-15T08:22:37;100973.84;;;1.86;82.52
69855;BME280;57146;48.140;16.304;2023-02-15T08:25:04;100975.44;;;1.87;82.81
69855;BME280;57146;48.140;16.304;2023-02-15T08:27:31;100975.22;;;1.88;82.94
69855;BME280;57146;48.140;16.304;2023-02-15T08:29:58;100976.25;;;1.87;82.55
69855;BME280;57146;48.140;16.304;2023-02-15T08:32:25;100972.25;;;1.85;82.35
69855;BME280;57146;48.140;16.304;2023-02-15T08:34:51;100965.28;;;1.85;82.59
69855;BME280;57146;48.140;16.304;2023-02-15T08:37:18;100958.47;;;1.84;82.83
69855;BME280;57146;48.140;16.304;2023-02-15T08:39:45;100966.47;;;1.89;82.33
69855;BME280;57146;48.140;16.304;2023-02-15T08:42:12;100967.03;;;1.91;82.24
69855;BME280;57146;48.140;16.304;2023-02-15T08:44:39;100967.84;;;1.92;82.41
69855;BME280;57146;48.140;16.304;2023-02-15T08:47:06;100963.06;;;1.89;82.46
69855;BME280;57146;48.140;16.304;2023-02-15T08:49:32;100953.66;;;1.88;82.42
69855;BME280;57146;48.140;16.304;2023-02-15T08:51:59;100955.06;;;1.90;82.63
69855;BME280;57146;48.140;16.304;2023-02-15T08:54:26;100952.25;;;1.92;82.39
69855;BME280;57146;48.140;16.304;2023-02-15T08:56:53;100951.47;;;1.91;82.21
69855;BME280;57146;48.140;16.304;2023-02-15T08:59:21;100953.66;;;1.95;82.27
69855;BME280;57146;48.140;16.304;2023-02-15T09:01:50;100956.25;;;1.95;82.45
69855;BME280;57146;48.140;16.304;2023-02-15T09:04:18;100952.69;;;1.89;82.40
69855;BME280;57146;48.140;16.304;2023-02-15T09:06:46;100953.06;;;1.92;82.21
69855;BME280;57146;48.140;16.304;2023-02-15T09:09:16;100964.44;;;1.91;82.32
69855;BME280;57146;48.140;16.304;2023-02-15T09:11:45;100957.44;;;1.92;82.35
69855;BME280;57146;48.140;16.304;2023-02-15T09:14:15;100958.06;;;1.94;82.51
69855;BME280;57146;48.140;16.304;2023-02-15T09:16:46;100959.47;;;2.03;82.46
69855;BME280;57146;48.140;16.304;2023-02-15T09:19:13;100959.47;;;2.03;82.03
69855;BME280;57146;48.140;16.304;2023-02-15T09:21:41;100959.06;;;2.00;81.85
69855;BME280;57146;48.140;16.304;2023-02-15T09:24:11;100959.47;;;2.03;81.60
69855;BME280;57146;48.140;16.304;2023-02-15T09:26:42;100953.03;;;2.06;82.36
69855;BME280;57146;48.140;16.304;2023-02-15T09:29:10;100954.66;;;2.07;81.46
69855;BME280;57146;48.140;16.304;2023-02-15T09:31:49;100951.44;;;2.11;82.65
69855;BME280;57146;48.140;16.304;2023-02-15T09:34:19;100949.66;;;2.12;81.89
69855;BME280;57146;48.140;16.304;2023-02-15T09:36:47;100946.03;;;2.06;81.73
69855;BME280;57146;48.140;16.304;2023-02-15T09:39:20;100949.25;;;2.15;82.20
69855;BME280;57146;48.140;16.304;2023-02-15T09:45:13;100950.63;;;2.24;82.18
69855;BME280;57146;48.140;16.304;2023-02-15T09:47:49;100939.25;;;2.19;81.06
69855;BME280;57146;48.140;16.304;2023-02-15T09:53:28;100939.03;;;2.20;81.47
69855;BME280;57146;48.140;16.304;2023-02-15T09:56:31;100942.63;;;2.26;81.33
69855;BME280;57146;48.140;16.304;2023-02-15T10:04:42;100928.63;;;2.20;80.52
69855;BME280;57146;48.140;16.304;2023-02-15T10:10:02;100931.63;;;2.30;81.23
69855;BME280;57146;48.140;16.304;2023-02-15T10:18:05;100935.00;;;2.31;80.59
69855;BME280;57146;48.140;16.304;2023-02-15T10:20:53;100936.63;;;2.32;80.67
69855;BME280;57146;48.140;16.304;2023-02-15T10:26:08;100931.03;;;2.35;80.44
69855;BME280;57146;48.140;16.304;2023-02-15T10:29:07;100931.03;;;2.35;80.73
69855;BME280;57146;48.140;16.304;2023-02-15T10:39:29;100911.59;;;2.44;80.89
69855;BME280;57146;48.140;16.304;2023-02-15T10:52:54;100911.31;;;2.59;81.54
69855;BME280;57146;48.140;16.304;2023-02-15T10:55:47;100900.50;;;2.62;80.86
69855;BME280;57146;48.140;16.304;2023-02-15T11:11:07;100879.28;;;2.72;80.30
69855;BME280;57146;48.140;16.304;2023-02-15T11:13:15;100871.06;;;2.75;80.81
69855;BME280;57146;48.140;16.304;2023-02-15T11:15:49;100873.66;;;2.75;80.58
69855;BME280;57146;48.140;16.304;2023-02-15T11:18:25;100869.66;;;2.72;80.37
69855;BME280;57146;48.140;16.304;2023-02-15T11:21:00;100875.84;;;2.78;80.96
69855;BME280;57146;48.140;16.304;2023-02-15T11:23:29;100864.63;;;2.77;80.57
69855;BME280;57146;48.140;16.304;2023-02-15T11:26:01;100875.66;;;2.73;80.67
69855;BME280;57146;48.140;16.304;2023-02-15T11:28:41;100871.63;;;2.77;81.22
69855;BME280;57146;48.140;16.304;2023-02-15T11:31:19;100868.06;;;2.78;80.63
69855;BME280;57146;48.140;16.304;2023-02-15T11:33:52;100868.84;;;2.78;80.98
69855;BME280;57146;48.140;16.304;2023-02-15T11:36:24;100866.25;;;2.78;80.04
69855;BME280;57146;48.140;16.304;2023-02-15T11:39:02;100868.88;;;2.72;80.38
69855;BME280;57146;48.140;16.304;2023-02-15T11:41:34;100872.25;;;2.72;80.66
69855;BME280;57146;48.140;16.304;2023-02-15T11:46:38;100863.66;;;2.72;80.43
69855;BME280;57146;48.140;16.304;2023-02-15T11:49:21;100862.88;;;2.71;80.43
69855;BME280;57146;48.140;16.304;2023-02-15T11:51:50;100860.66;;;2.75;80.46
69855;BME280;57146;48.140;16.304;2023-02-15T11:54:22;100854.41;;;2.82;80.62
69855;BME280;57146;48.140;16.304;2023-02-15T11:56:51;100855.16;;;2.90;80.72
69855;BME280;57146;48.140;16.304;2023-02-15T11:59:31;100846.72;;;2.94;80.81
69855;BME280;57146;48.140;16.304;2023-02-15T12:01:59;100848.31;;;2.95;80.20
69855;BME280;57146;48.140;16.304;2023-02-15T12:04:34;100847.56;;;2.88;80.18
69855;BME280;57146;48.140;16.304;2023-02-15T12:07:15;100847.56;;;2.88;80.47
69855;BME280;57146;48.140;16.304;2023-02-15T12:12:37;100849.16;;;2.89;80.19
69855;BME280;57146;48.140;16.304;2023-02-15T12:15:07;100847.75;;;2.93;80.88
69855;BME280;57146;48.140;16.304;2023-02-15T12:17:49;100841.16;;;2.91;80.05
69855;BME280;57146;48.140;16.304;2023-02-15T12:22:53;100838.28;;;2.99;79.52
69855;BME280;57146;48.140;16.304;2023-02-15T12:25:37;100830.66;;;3.04;79.49
69855;BME280;57146;48.140;16.304;2023-02-15T12:28:26;100829.97;;;3.15;79.83
69855;BME280;57146;48.140;16.304;2023-02-15T12:30:57;100823.78;;;3.09;78.91
69855;BME280;57146;48.140;16.304;2023-02-15T12:33:30;100820.78;;;3.12;79.76
69855;BME280;57146;48.140;16.304;2023-02-15T12:36:04;100819.97;;;3.12;79.32
69855;BME280;57146;48.140;16.304;2023-02-15T12:38:36;100814.72;;;3.19;79.70
69855;BME280;57146;48.140;16.304;2023-02-15T12:41:32;100812.28;;;3.24;79.52
69855;BME280;57146;48.140;16.304;2023-02-15T12:44:19;100813.88;;;3.25;79.50
69855;BME280;57146;48.140;16.304;2023-02-15T12:47:00;100812.06;;;3.25;78.27
69855;BME280;57146;48.140;16.304;2023-02-15T12:49:38;100806.03;;;3.31;78.75
69855;BME280;57146;48.140;16.304;2023-02-15T12:54:44;100799.75;;;3.39;78.15
69855;BME280;57146;48.140;16.304;2023-02-15T12:57:27;100800.91;;;3.43;78.22
69855;BME280;57146;48.140;16.304;2023-02-15T13:00:05;100797.13;;;3.39;78.21
69855;BME280;57146;48.140;16.304;2023-02-15T13:02:53;100795.56;;;3.38;78.59
69855;BME280;57146;48.140;16.304;2023-02-15T13:05:32;100793.69;;;3.45;79.14
69855;BME280;57146;48.140;16.304;2023-02-15T13:08:10;100793.69;;;3.45;77.93
69855;BME280;57146;48.140;16.304;2023-02-15T13:11:00;100787.03;;;3.49;77.65
69855;BME280;57146;48.140;16.304;2023-02-15T13:13:35;100783.19;;;3.52;78.22
69855;BME280;57146;48.140;16.304;2023-02-15T13:16:05;100782.56;;;3.56;77.78
69855;BME280;57146;48.140;16.304;2023-02-15T13:21:25;100776.03;;;3.66;77.65
69855;BME280;57146;48.140;16.304;2023-02-15T13:24:01;100773.84;;;3.63;77.14
69855;BME280;57146;48.140;16.304;2023-02-15T13:26:32;100771.91;;;3.58;77.29
69855;BME280;57146;48.140;16.304;2023-02-15T13:29:07;100768.09;;;3.60;77.21
69855;BME280;57146;48.140;16.304;2023-02-15T13:31:35;100767.50;;;3.58;77.50
69855;BME280;57146;48.140;16.304;2023-02-15T13:34:09;100771.19;;;3.51;77.82
69855;BME280;57146;48.140;16.304;2023-02-15T13:42:20;100769.72;;;3.73;76.97
69855;BME280;57146;48.140;16.304;2023-02-15T13:45:07;100769.38;;;3.70;76.86
69855;BME280;57146;48.140;16.304;2023-02-15T13:47:48;100764.16;;;3.70;76.40
69855;BME280;57146;48.140;16.304;2023-02-15T13:53:31;100759.91;;;3.75;76.30
69855;BME280;57146;48.140;16.304;2023-02-15T13:56:31;100761.91;;;3.73;76.88
69855;BME280;57146;48.140;16.304;2023-02-15T14:07:47;100751.16;;;3.70;76.98
69855;BME280;57146;48.140;16.304;2023-02-15T14:16:13;100741.91;;;3.74;76.98
69855;BME280;57146;48.140;16.304;2023-02-15T14:18:50;100743.63;;;3.80;76.74
69855;BME280;57146;48.140;16.304;2023-02-15T14:30:22;100743.06;;;3.78;76.22
69855;BME280;57146;48.140;16.304;2023-02-15T14:32:55;100743.78;;;3.85;76.66
69855;BME280;57146;48.140;16.304;2023-02-15T14:35:35;100737.78;;;3.84;76.64
69855;BME280;57146;48.140;16.304;2023-02-15T14:38:42;100728.16;;;3.85;76.34
69855;BME280;57146;48.140;16.304;2023-02-15T14:41:31;100729.72;;;3.86;76.76
69855;BME280;57146;48.140;16.304;2023-02-15T14:44:12;100737.91;;;3.90;76.96
69855;BME280;57146;48.140;16.304;2023-02-15T14:47:09;100727.13;;;3.86;77.04
69855;BME280;57146;48.140;16.304;2023-02-15T14:49:39;100727.34;;;3.84;76.78
69855;BME280;57146;48.140;16.304;2023-02-15T14:52:08;100736.16;;;3.83;76.95
69855;BME280;57146;48.140;16.304;2023-02-15T15:05:26;100713.47;;;3.72;77.23
69855;BME280;57146;48.140;16.304;2023-02-15T15:12:49;100711.09;;;3.71;78.08
69855;BME280;57146;48.140;16.304;2023-02-15T15:15:55;100707.91;;;3.69;78.25
69855;BME280;57146;48.140;16.304;2023-02-15T15:18:44;100709.47;;;3.70;78.62
69855;BME280;57146;48.140;16.304;2023-02-15T15:27:44;100703.41;;;3.57;79.27
69855;BME280;57146;48.140;16.304;2023-02-15T15:48:54;100699.50;;;3.30;80.38
69855;BME280;57146;48.140;16.304;2023-02-15T15:51:34;100702.78;;;3.25;80.53
69855;BME280;57146;48.140;16.304;2023-02-15T15:54:02;100702.19;;;3.23;80.70
69855;BME280;57146;48.140;16.304;2023-02-15T15:56:36;100703.84;;;3.18;81.27
69855;BME280;57146;48.140;16.304;2023-02-15T15:59:14;100701.09;;;3.12;81.16
69855;BME280;57146;48.140;16.304;2023-02-15T16:01:45;100701.88;;;3.13;81.41
69855;BME280;57146;48.140;16.304;2023-02-15T16:04:21;100703.13;;;3.10;81.64
69855;BME280;57146;48.140;16.304;2023-02-15T16:06:49;100698.53;;;3.06;81.53
69855;BME280;57146;48.140;16.304;2023-02-15T16:09:25;100694.63;;;2.97;81.78